Kezdőlap
METAR-TAF:

METAR-TAF

Repülőterek :

Pyeongtaek, Dél-Korea

földrajzi szélesség: 36-56N, földrajzi hosszúság: 127-00E, magasság: 16 m

Jelenlegi meteorológiai megfigyelések

A jelentés 1 órával és 10 perccel ezelõtt készült, 05:55 UTC
Észak-északkeleti szél 9 kt
Hőmérséklet 26°C
Páratartalom 34%
Légköri nyomás 1005 hPa
Látótávolság: 16.1 km
Kevés felhő 6500 lábon
Szórványos felhőzet 9000 lábon

METAR: RKSG 280555Z AUTO 02009KT 10SM FEW065 SCT090 26/09 A2967 RMK AO2 SLP050 T02580092 10263 20186 56008 $

Idő: 16:05 (07:05 UTC)

Előrejelzés

A jelentés 4 órával és 5 perccel ezelõtt készült, 03:00 UTC
Az előrejelzés 28-én 03 óra UTC és 29-én 09 óra UTC között érvényes
Észak-északkeleti szél 9 kt
Látótávolság 10 km, vagy több
Kevés felhő 4500 lábon

TAF: RKSG 280300Z 2803/2909 03009KT 9999 FEW045 QNH2970INS TX25/2805Z TN11/2820Z

Meteorológiai megfigyelések és előrejelzések több, mint 4000 repülőtéren (METAR és TAF jelentéseket).

A térképen piros és sárga pontok jelzik az elérhető meteorológiai állomásokat.

Mozgassa az egeret a pont fölött, hogy megjelenjen az állomás neve.

Azután kattintson az időjárási megfigyelések és előrejelzések megtekintéséhez.

A térkép megváltoztatása: kattintson a fekete keresztel jelölt zöld gombra ráközelítéshez, a vonallal jelölt zöld gombra távolításhoz, vagy a zöld nyilakra a szomszédos térképek eléréséhez.


METAR-TAF: